sensor_id;sensor_type;location;lat;lon;timestamp;pressure;altitude;pressure_sealevel;temperature;humidity
72414;BME280;60995;52.154;4.498;2023-05-12T00:00:29;101784.09;;;13.57;80.96
72414;BME280;60995;52.154;4.498;2023-05-12T00:02:45;101788.66;;;13.57;80.99
72414;BME280;60995;52.154;4.498;2023-05-12T00:05:02;101784.25;;;13.56;80.90
72414;BME280;60995;52.154;4.498;2023-05-12T00:07:19;101778.31;;;13.30;81.20
72414;BME280;60995;52.154;4.498;2023-05-12T00:09:35;101791.31;;;13.26;81.31
72414;BME280;60995;52.154;4.498;2023-05-12T00:11:52;101789.31;;;13.28;81.52
72414;BME280;60995;52.154;4.498;2023-05-12T00:14:08;101792.16;;;13.27;81.41
72414;BME280;60995;52.154;4.498;2023-05-12T00:16:25;101791.63;;;13.12;81.60
72414;BME280;60995;52.154;4.498;2023-05-12T00:18:41;101793.81;;;13.18;81.76
72414;BME280;60995;52.154;4.498;2023-05-12T00:20:57;101788.63;;;13.15;82.05
72414;BME280;60995;52.154;4.498;2023-05-12T00:23:13;101790.75;;;13.32;82.33
72414;BME280;60995;52.154;4.498;2023-05-12T00:25:29;101792.59;;;13.22;82.06
72414;BME280;60995;52.154;4.498;2023-05-12T00:27:46;101793.28;;;13.24;82.28
72414;BME280;60995;52.154;4.498;2023-05-12T00:30:02;101779.19;;;13.19;82.18
72414;BME280;60995;52.154;4.498;2023-05-12T00:32:19;101781.22;;;13.17;82.06
72414;BME280;60995;52.154;4.498;2023-05-12T00:34:35;101783.47;;;13.12;82.48
72414;BME280;60995;52.154;4.498;2023-05-12T00:36:51;101780.28;;;13.06;82.44
72414;BME280;60995;52.154;4.498;2023-05-12T00:39:08;101780.75;;;13.12;82.55
72414;BME280;60995;52.154;4.498;2023-05-12T00:41:24;101776.88;;;13.14;82.43
72414;BME280;60995;52.154;4.498;2023-05-12T00:43:41;101782.75;;;12.98;82.48
72414;BME280;60995;52.154;4.498;2023-05-12T00:45:58;101779.16;;;13.09;82.43
72414;BME280;60995;52.154;4.498;2023-05-12T00:48:15;101774.47;;;13.00;82.59
72414;BME280;60995;52.154;4.498;2023-05-12T00:50:32;101779.31;;;12.96;82.88
72414;BME280;60995;52.154;4.498;2023-05-12T00:52:49;101774.84;;;12.95;82.89
72414;BME280;60995;52.154;4.498;2023-05-12T00:55:05;101784.31;;;12.80;83.20
72414;BME280;60995;52.154;4.498;2023-05-12T01:02:14;101771.19;;;12.85;83.21
72414;BME280;60995;52.154;4.498;2023-05-12T01:04:30;101777.69;;;13.05;83.33
72414;BME280;60995;52.154;4.498;2023-05-12T01:09:18;101774.78;;;12.85;83.39
72414;BME280;60995;52.154;4.498;2023-05-12T01:11:36;101771.97;;;13.08;83.15
72414;BME280;60995;52.154;4.498;2023-05-12T01:13:52;101766.66;;;13.06;82.95
72414;BME280;60995;52.154;4.498;2023-05-12T01:16:13;101772.50;;;12.90;83.13
72414;BME280;60995;52.154;4.498;2023-05-12T01:18:32;101763.03;;;13.06;83.14
72414;BME280;60995;52.154;4.498;2023-05-12T01:20:52;101780.09;;;12.87;83.36
72414;BME280;60995;52.154;4.498;2023-05-12T01:23:12;101767.44;;;12.97;83.33
72414;BME280;60995;52.154;4.498;2023-05-12T01:25:34;101773.34;;;12.70;83.55
72414;BME280;60995;52.154;4.498;2023-05-12T01:27:54;101770.72;;;12.80;83.70
72414;BME280;60995;52.154;4.498;2023-05-12T01:30:16;101767.78;;;12.71;83.95
72414;BME280;60995;52.154;4.498;2023-05-12T01:32:34;101770.72;;;12.80;83.92
72414;BME280;60995;52.154;4.498;2023-05-12T01:34:53;101770.22;;;12.74;83.67
72414;BME280;60995;52.154;4.498;2023-05-12T01:37:09;101771.00;;;12.65;83.92
72414;BME280;60995;52.154;4.498;2023-05-12T01:39:26;101770.72;;;12.68;83.84
72414;BME280;60995;52.154;4.498;2023-05-12T01:41:42;101775.66;;;12.74;84.01
72414;BME280;60995;52.154;4.498;2023-05-12T01:43:58;101769.25;;;12.64;83.99
72414;BME280;60995;52.154;4.498;2023-05-12T01:46:15;101772.47;;;12.69;84.15
72414;BME280;60995;52.154;4.498;2023-05-12T01:48:31;101771.00;;;12.65;83.96
72414;BME280;60995;52.154;4.498;2023-05-12T01:50:47;101771.47;;;12.70;83.80
72414;BME280;60995;52.154;4.498;2023-05-12T01:53:04;101764.78;;;12.74;84.05
72414;BME280;60995;52.154;4.498;2023-05-12T01:55:20;101768.72;;;12.82;83.96
72414;BME280;60995;52.154;4.498;2023-05-12T01:57:36;101769.09;;;12.77;84.03
72414;BME280;60995;52.154;4.498;2023-05-12T01:59:52;101768.94;;;12.90;83.94
72414;BME280;60995;52.154;4.498;2023-05-12T02:02:09;101760.75;;;12.90;83.75
72414;BME280;60995;52.154;4.498;2023-05-12T02:04:26;101765.69;;;12.96;83.53
72414;BME280;60995;52.154;4.498;2023-05-12T02:06:43;101764.00;;;12.84;83.73
72414;BME280;60995;52.154;4.498;2023-05-12T02:08:59;101772.41;;;12.92;83.47
72414;BME280;60995;52.154;4.498;2023-05-12T02:11:15;101765.66;;;12.75;83.77
72414;BME280;60995;52.154;4.498;2023-05-12T02:13:32;101757.00;;;12.70;83.96
72414;BME280;60995;52.154;4.498;2023-05-12T02:15:49;101761.97;;;12.65;84.04
72414;BME280;60995;52.154;4.498;2023-05-12T02:18:05;101763.94;;;12.74;84.26
72414;BME280;60995;52.154;4.498;2023-05-12T02:20:22;101765.28;;;12.68;84.29
72414;BME280;60995;52.154;4.498;2023-05-12T02:22:39;101761.81;;;12.78;84.06
72414;BME280;60995;52.154;4.498;2023-05-12T02:24:55;101751.16;;;12.74;84.26
72414;BME280;60995;52.154;4.498;2023-05-12T02:27:11;101761.69;;;12.79;84.32
72414;BME280;60995;52.154;4.498;2023-05-12T02:29:28;101756.63;;;12.63;84.65
72414;BME280;60995;52.154;4.498;2023-05-12T02:31:44;101754.94;;;12.62;84.82
72414;BME280;60995;52.154;4.498;2023-05-12T02:34:00;101753.75;;;12.76;84.68
72414;BME280;60995;52.154;4.498;2023-05-12T02:36:17;101756.63;;;12.63;84.92
72414;BME280;60995;52.154;4.498;2023-05-12T02:38:33;101748.38;;;12.65;84.93
72414;BME280;60995;52.154;4.498;2023-05-12T02:40:49;101741.06;;;12.65;84.88
72414;BME280;60995;52.154;4.498;2023-05-12T02:43:05;101744.03;;;12.62;84.91
72414;BME280;60995;52.154;4.498;2023-05-12T02:45:22;101752.34;;;12.61;84.95
72414;BME280;60995;52.154;4.498;2023-05-12T02:47:38;101740.75;;;12.80;85.02
72414;BME280;60995;52.154;4.498;2023-05-12T02:49:54;101737.50;;;12.86;84.65
72414;BME280;60995;52.154;4.498;2023-05-12T02:52:11;101751.63;;;12.80;85.09
72414;BME280;60995;52.154;4.498;2023-05-12T02:54:27;101743.59;;;12.78;85.09
72414;BME280;60995;52.154;4.498;2023-05-12T02:56:44;101730.75;;;12.80;85.22
72414;BME280;60995;52.154;4.498;2023-05-12T02:59:00;101741.81;;;12.56;85.60
72414;BME280;60995;52.154;4.498;2023-05-12T03:01:16;101737.81;;;12.71;85.94
72414;BME280;60995;52.154;4.498;2023-05-12T03:03:32;101741.88;;;12.77;85.78
72414;BME280;60995;52.154;4.498;2023-05-12T03:05:49;101739.06;;;12.67;85.66
72414;BME280;60995;52.154;4.498;2023-05-12T03:08:06;101741.53;;;12.70;86.12
72414;BME280;60995;52.154;4.498;2023-05-12T03:10:22;101728.41;;;12.64;86.26
72414;BME280;60995;52.154;4.498;2023-05-12T03:12:38;101731.88;;;12.78;86.26
72414;BME280;60995;52.154;4.498;2023-05-12T03:14:55;101723.47;;;12.69;86.40
72414;BME280;60995;52.154;4.498;2023-05-12T03:17:12;101727.31;;;12.67;86.58
72414;BME280;60995;52.154;4.498;2023-05-12T03:19:28;101733.56;;;12.79;86.61
72414;BME280;60995;52.154;4.498;2023-05-12T03:21:44;101729.94;;;12.89;86.65
72414;BME280;60995;52.154;4.498;2023-05-12T03:24:01;101729.38;;;12.74;86.80
72414;BME280;60995;52.154;4.498;2023-05-12T03:26:17;101724.75;;;12.54;86.86
72414;BME280;60995;52.154;4.498;2023-05-12T03:28:34;101725.28;;;12.48;87.69
72414;BME280;60995;52.154;4.498;2023-05-12T03:30:53;101724.75;;;12.54;87.65
72414;BME280;60995;52.154;4.498;2023-05-12T03:33:09;101727.47;;;12.54;87.61
72414;BME280;60995;52.154;4.498;2023-05-12T03:35:25;101719.41;;;12.64;87.91
72414;BME280;60995;52.154;4.498;2023-05-12T03:37:42;101724.50;;;12.57;87.82
72414;BME280;60995;52.154;4.498;2023-05-12T03:39:58;101727.25;;;12.46;87.94
72414;BME280;60995;52.154;4.498;2023-05-12T03:42:14;101726.56;;;12.32;88.29
72414;BME280;60995;52.154;4.498;2023-05-12T03:44:31;101717.13;;;12.36;88.32
72414;BME280;60995;52.154;4.498;2023-05-12T03:46:47;101720.13;;;12.33;88.33
72414;BME280;60995;52.154;4.498;2023-05-12T03:49:03;101720.38;;;12.19;88.60
72414;BME280;60995;52.154;4.498;2023-05-12T03:51:20;101712.97;;;12.21;88.73
72414;BME280;60995;52.154;4.498;2023-05-12T03:53:36;101713.81;;;12.21;88.96
72414;BME280;60995;52.154;4.498;2023-05-12T03:55:52;101723.84;;;12.10;89.28
72414;BME280;60995;52.154;4.498;2023-05-12T03:58:08;101723.38;;;12.04;89.75
72414;BME280;60995;52.154;4.498;2023-05-12T04:00:25;101713.88;;;12.10;89.68
72414;BME280;60995;52.154;4.498;2023-05-12T04:02:41;101714.22;;;12.17;89.73
72414;BME280;60995;52.154;4.498;2023-05-12T04:04:57;101711.63;;;12.15;89.30
72414;BME280;60995;52.154;4.498;2023-05-12T04:07:13;101707.53;;;12.21;89.34
72414;BME280;60995;52.154;4.498;2023-05-12T04:09:30;101718.06;;;12.14;89.48
72414;BME280;60995;52.154;4.498;2023-05-12T04:11:47;101721.41;;;12.06;89.68
72414;BME280;60995;52.154;4.498;2023-05-12T04:14:04;101710.25;;;12.10;89.63
72414;BME280;60995;52.154;4.498;2023-05-12T04:16:20;101723.34;;;12.27;89.55
72414;BME280;60995;52.154;4.498;2023-05-12T04:18:37;101712.81;;;12.34;89.37
72414;BME280;60995;52.154;4.498;2023-05-12T04:20:54;101722.06;;;12.43;89.04
72414;BME280;60995;52.154;4.498;2023-05-12T04:23:10;101717.00;;;12.38;88.76
72414;BME280;60995;52.154;4.498;2023-05-12T04:25:27;101720.59;;;12.38;88.83
72414;BME280;60995;52.154;4.498;2023-05-12T04:27:43;101721.97;;;12.33;89.04
72414;BME280;60995;52.154;4.498;2023-05-12T04:29:59;101719.66;;;12.28;88.94
72414;BME280;60995;52.154;4.498;2023-05-12T04:32:16;101717.88;;;12.38;89.16
72414;BME280;60995;52.154;4.498;2023-05-12T04:34:33;101721.81;;;12.46;88.90
72414;BME280;60995;52.154;4.498;2023-05-12T04:36:50;101719.84;;;12.48;89.05
72414;BME280;60995;52.154;4.498;2023-05-12T04:39:06;101717.50;;;12.43;89.03
72414;BME280;60995;52.154;4.498;2023-05-12T04:41:22;101717.22;;;12.46;89.02
72414;BME280;60995;52.154;4.498;2023-05-12T04:43:39;101724.50;;;12.57;88.86
72414;BME280;60995;52.154;4.498;2023-05-12T04:45:55;101717.81;;;12.61;88.73
72414;BME280;60995;52.154;4.498;2023-05-12T04:48:11;101715.69;;;12.65;88.54
72414;BME280;60995;52.154;4.498;2023-05-12T04:50:27;101720.81;;;12.58;88.84
72414;BME280;60995;52.154;4.498;2023-05-12T04:52:43;101719.31;;;12.54;88.65
72414;BME280;60995;52.154;4.498;2023-05-12T04:55:00;101724.97;;;12.62;88.57
72414;BME280;60995;52.154;4.498;2023-05-12T04:57:16;101721.22;;;12.74;88.28
72414;BME280;60995;52.154;4.498;2023-05-12T04:59:32;101723.28;;;12.82;88.40
72414;BME280;60995;52.154;4.498;2023-05-12T05:01:49;101723.56;;;12.79;88.19
72414;BME280;60995;52.154;4.498;2023-05-12T05:04:06;101723.72;;;12.66;88.28
72414;BME280;60995;52.154;4.498;2023-05-12T05:06:22;101727.13;;;12.80;88.55
72414;BME280;60995;52.154;4.498;2023-05-12T05:08:38;101738.44;;;12.75;88.47
72414;BME280;60995;52.154;4.498;2023-05-12T05:10:55;101735.06;;;12.83;88.41
72414;BME280;60995;52.154;4.498;2023-05-12T05:13:11;101726.94;;;12.71;88.63
72414;BME280;60995;52.154;4.498;2023-05-12T05:15:27;101746.19;;;12.80;88.60
72414;BME280;60995;52.154;4.498;2023-05-12T05:17:43;101744.22;;;12.82;88.79
72414;BME280;60995;52.154;4.498;2023-05-12T05:20:04;101739.16;;;12.98;88.75
72414;BME280;60995;52.154;4.498;2023-05-12T05:22:22;101739.66;;;13.03;88.40
72414;BME280;60995;52.154;4.498;2023-05-12T05:24:38;101735.94;;;13.04;88.31
72414;BME280;60995;52.154;4.498;2023-05-12T05:26:55;101742.13;;;13.06;88.23
72414;BME280;60995;52.154;4.498;2023-05-12T05:29:11;101739.88;;;13.12;88.40
72414;BME280;60995;52.154;4.498;2023-05-12T05:31:29;101747.50;;;13.18;88.05
72414;BME280;60995;52.154;4.498;2023-05-12T05:33:45;101740.81;;;13.22;88.02
72414;BME280;60995;52.154;4.498;2023-05-12T05:36:02;101744.19;;;13.14;88.22
72414;BME280;60995;52.154;4.498;2023-05-12T05:38:19;101742.03;;;13.18;88.17
72414;BME280;60995;52.154;4.498;2023-05-12T05:40:35;101746.03;;;13.14;88.45
72414;BME280;60995;52.154;4.498;2023-05-12T05:42:51;101751.91;;;13.30;88.21
72414;BME280;60995;52.154;4.498;2023-05-12T05:45:08;101758.94;;;13.33;88.14
72414;BME280;60995;52.154;4.498;2023-05-12T05:47:25;101761.28;;;13.37;88.08
72414;BME280;60995;52.154;4.498;2023-05-12T05:49:43;101761.88;;;13.41;87.96
72414;BME280;60995;52.154;4.498;2023-05-12T05:51:59;101765.50;;;13.42;88.22
72414;BME280;60995;52.154;4.498;2023-05-12T05:54:15;101763.78;;;13.29;88.39
72414;BME280;60995;52.154;4.498;2023-05-12T05:56:31;101771.06;;;13.40;88.60
72414;BME280;60995;52.154;4.498;2023-05-12T05:58:50;101765.53;;;13.30;88.71
72414;BME280;60995;52.154;4.498;2023-05-12T06:01:08;101759.59;;;13.36;88.58
72414;BME280;60995;52.154;4.498;2023-05-12T06:03:24;101760.28;;;13.38;88.62
72414;BME280;60995;52.154;4.498;2023-05-12T06:05:41;101759.03;;;13.43;88.72
72414;BME280;60995;52.154;4.498;2023-05-12T06:07:57;101769.88;;;13.54;88.43
72414;BME280;60995;52.154;4.498;2023-05-12T06:10:14;101758.78;;;13.46;88.34
72414;BME280;60995;52.154;4.498;2023-05-12T06:12:30;101771.66;;;13.44;88.72
72414;BME280;60995;52.154;4.498;2023-05-12T06:14:46;101773.06;;;13.59;88.50
72414;BME280;60995;52.154;4.498;2023-05-12T06:17:03;101767.13;;;13.54;88.37
72414;BME280;60995;52.154;4.498;2023-05-12T06:19:19;101766.28;;;13.53;88.23
72414;BME280;60995;52.154;4.498;2023-05-12T06:21:37;101777.97;;;13.65;88.37
72414;BME280;60995;52.154;4.498;2023-05-12T06:23:53;101783.69;;;13.62;88.41
72414;BME280;60995;52.154;4.498;2023-05-12T06:26:11;101778.22;;;13.83;88.20
72414;BME280;60995;52.154;4.498;2023-05-12T06:28:28;101785.13;;;13.87;87.78
72414;BME280;60995;52.154;4.498;2023-05-12T06:30:44;101788.03;;;13.96;87.76
72414;BME280;60995;52.154;4.498;2023-05-12T06:33:00;101777.88;;;14.07;87.26
72414;BME280;60995;52.154;4.498;2023-05-12T06:35:16;101768.22;;;13.94;86.86
72414;BME280;60995;52.154;4.498;2023-05-12T06:37:33;101768.84;;;14.07;86.73
72414;BME280;60995;52.154;4.498;2023-05-12T06:39:49;101772.84;;;14.03;86.68
72414;BME280;60995;52.154;4.498;2023-05-12T06:42:05;101769.16;;;14.14;86.37
72414;BME280;60995;52.154;4.498;2023-05-12T06:44:25;101768.75;;;14.28;86.12
72414;BME280;60995;52.154;4.498;2023-05-12T06:46:41;101773.81;;;14.33;85.82
72414;BME280;60995;52.154;4.498;2023-05-12T06:48:58;101767.69;;;14.60;85.44
72414;BME280;60995;52.154;4.498;2023-05-12T06:51:15;101783.69;;;14.84;84.61
72414;BME280;60995;52.154;4.498;2023-05-12T06:53:31;101772.34;;;14.89;84.02
72414;BME280;60995;52.154;4.498;2023-05-12T06:55:48;101781.53;;;15.17;83.69
72414;BME280;60995;52.154;4.498;2023-05-12T06:58:05;101771.00;;;15.52;82.30
72414;BME280;60995;52.154;4.498;2023-05-12T07:00:22;101774.75;;;15.51;80.97
72414;BME280;60995;52.154;4.498;2023-05-12T07:02:39;101773.81;;;15.90;80.29
72414;BME280;60995;52.154;4.498;2023-05-12T07:04:56;101770.63;;;16.50;78.71
72414;BME280;60995;52.154;4.498;2023-05-12T07:07:12;101765.25;;;16.76;76.33
72414;BME280;60995;52.154;4.498;2023-05-12T07:09:29;101761.38;;;16.51;74.94
72414;BME280;60995;52.154;4.498;2023-05-12T07:11:45;101763.97;;;16.52;75.44
72414;BME280;60995;52.154;4.498;2023-05-12T07:14:02;101764.94;;;16.33;75.44
72414;BME280;60995;52.154;4.498;2023-05-12T07:16:18;101769.13;;;16.56;75.62
72414;BME280;60995;52.154;4.498;2023-05-12T07:18:35;101767.69;;;16.79;75.03
72414;BME280;60995;52.154;4.498;2023-05-12T07:20:51;101773.41;;;16.86;74.27
72414;BME280;60995;52.154;4.498;2023-05-12T07:23:08;101760.63;;;16.77;74.52
72414;BME280;60995;52.154;4.498;2023-05-12T07:25:24;101765.81;;;16.80;73.47
72414;BME280;60995;52.154;4.498;2023-05-12T07:27:40;101774.28;;;17.05;72.84
72414;BME280;60995;52.154;4.498;2023-05-12T07:29:56;101770.97;;;16.83;72.59
72414;BME280;60995;52.154;4.498;2023-05-12T07:32:13;101775.91;;;16.79;72.98
72414;BME280;60995;52.154;4.498;2023-05-12T07:34:31;101772.34;;;16.51;73.96
72414;BME280;60995;52.154;4.498;2023-05-12T07:36:48;101781.78;;;16.66;75.27
72414;BME280;60995;52.154;4.498;2023-05-12T07:39:04;101776.03;;;16.78;74.49
72414;BME280;60995;52.154;4.498;2023-05-12T07:41:22;101779.25;;;16.55;74.22
72414;BME280;60995;52.154;4.498;2023-05-12T07:43:39;101779.44;;;16.72;73.74
72414;BME280;60995;52.154;4.498;2023-05-12T07:45:55;101770.94;;;17.90;70.96
72414;BME280;60995;52.154;4.498;2023-05-12T07:48:14;101782.44;;;18.54;66.91
72414;BME280;60995;52.154;4.498;2023-05-12T07:50:30;101783.16;;;18.64;66.13
72414;BME280;60995;52.154;4.498;2023-05-12T07:52:51;101769.34;;;18.40;64.96
72414;BME280;60995;52.154;4.498;2023-05-12T07:55:08;101776.53;;;18.41;64.36
72414;BME280;60995;52.154;4.498;2023-05-12T07:57:24;101769.25;;;18.82;64.12
72414;BME280;60995;52.154;4.498;2023-05-12T07:59:41;101771.19;;;19.56;62.34
72414;BME280;60995;52.154;4.498;2023-05-12T08:01:57;101771.91;;;19.33;62.67
72414;BME280;60995;52.154;4.498;2023-05-12T08:04:14;101782.72;;;18.94;63.08
72414;BME280;60995;52.154;4.498;2023-05-12T08:06:30;101787.69;;;19.73;62.64
72414;BME280;60995;52.154;4.498;2023-05-12T08:08:47;101788.72;;;19.88;61.11
72414;BME280;60995;52.154;4.498;2023-05-12T08:11:03;101784.97;;;19.23;61.79
72414;BME280;60995;52.154;4.498;2023-05-12T08:13:19;101792.34;;;18.47;64.80
72414;BME280;60995;52.154;4.498;2023-05-12T08:15:36;101793.09;;;18.57;64.49
72414;BME280;60995;52.154;4.498;2023-05-12T08:17:52;101796.16;;;19.22;64.30
72414;BME280;60995;52.154;4.498;2023-05-12T08:20:09;101786.28;;;19.93;61.24
72414;BME280;60995;52.154;4.498;2023-05-12T08:22:25;101789.25;;;20.23;59.86
72414;BME280;60995;52.154;4.498;2023-05-12T08:24:42;101787.75;;;20.12;58.96
72414;BME280;60995;52.154;4.498;2023-05-12T08:26:59;101781.31;;;20.28;60.29
72414;BME280;60995;52.154;4.498;2023-05-12T08:29:15;101794.88;;;21.09;56.52
72414;BME280;60995;52.154;4.498;2023-05-12T08:31:32;101788.88;;;20.43;58.06
72414;BME280;60995;52.154;4.498;2023-05-12T08:33:48;101786.97;;;19.95;58.85
72414;BME280;60995;52.154;4.498;2023-05-12T08:36:05;101783.19;;;19.96;59.18
72414;BME280;60995;52.154;4.498;2023-05-12T08:38:21;101783.34;;;20.43;57.13
72414;BME280;60995;52.154;4.498;2023-05-12T08:40:46;101789.94;;;20.96;56.59
72414;BME280;60995;52.154;4.498;2023-05-12T08:43:25;101788.97;;;21.12;54.93
72414;BME280;60995;52.154;4.498;2023-05-12T08:45:47;101794.22;;;21.22;54.33
72414;BME280;60995;52.154;4.498;2023-05-12T08:48:08;101800.41;;;22.01;52.59
72414;BME280;60995;52.154;4.498;2023-05-12T08:50:26;101796.19;;;22.65;52.60
72414;BME280;60995;52.154;4.498;2023-05-12T08:52:44;101798.31;;;22.84;50.76
72414;BME280;60995;52.154;4.498;2023-05-12T08:55:01;101796.75;;;22.60;50.57
72414;BME280;60995;52.154;4.498;2023-05-12T08:57:20;101800.09;;;22.55;51.90
72414;BME280;60995;52.154;4.498;2023-05-12T08:59:38;101798.47;;;22.98;49.97
72414;BME280;60995;52.154;4.498;2023-05-12T09:02:00;101797.97;;;23.87;48.11
72414;BME280;60995;52.154;4.498;2023-05-12T09:04:22;101792.69;;;23.14;49.28
72414;BME280;60995;52.154;4.498;2023-05-12T09:06:39;101808.25;;;23.65;48.54
72414;BME280;60995;52.154;4.498;2023-05-12T09:08:57;101810.22;;;22.85;50.31
72414;BME280;60995;52.154;4.498;2023-05-12T09:11:15;101804.84;;;22.61;51.25
72414;BME280;60995;52.154;4.498;2023-05-12T09:16:17;101804.66;;;23.71;48.31
72414;BME280;60995;52.154;4.498;2023-05-12T09:19:00;101808.16;;;22.72;49.83
72414;BME280;60995;52.154;4.498;2023-05-12T09:21:17;101805.63;;;22.55;51.82
72414;BME280;60995;52.154;4.498;2023-05-12T09:23:34;101803.59;;;23.01;49.56
72414;BME280;60995;52.154;4.498;2023-05-12T09:26:00;101800.28;;;22.90;49.61
72414;BME280;60995;52.154;4.498;2023-05-12T09:28:16;101801.34;;;22.53;50.31
72414;BME280;60995;52.154;4.498;2023-05-12T09:30:32;101811.25;;;23.42;49.14
72414;BME280;60995;52.154;4.498;2023-05-12T09:33:04;101811.94;;;23.22;49.54
72414;BME280;60995;52.154;4.498;2023-05-12T09:35:21;101807.91;;;23.25;48.90
72414;BME280;60995;52.154;4.498;2023-05-12T09:37:38;101812.13;;;23.92;47.83
72414;BME280;60995;52.154;4.498;2023-05-12T09:40:04;101817.56;;;24.14;46.13
72414;BME280;60995;52.154;4.498;2023-05-12T09:42:24;101819.97;;;24.24;45.45
72414;BME280;60995;52.154;4.498;2023-05-12T09:44:45;101825.56;;;23.24;47.64
72414;BME280;60995;52.154;4.498;2023-05-12T09:47:05;101809.59;;;23.98;46.79
72414;BME280;60995;52.154;4.498;2023-05-12T09:49:24;101817.25;;;24.79;44.51
72414;BME280;60995;52.154;4.498;2023-05-12T09:51:41;101807.69;;;24.40;46.96
72414;BME280;60995;52.154;4.498;2023-05-12T09:53:58;101813.88;;;24.42;45.15
72414;BME280;60995;52.154;4.498;2023-05-12T09:56:16;101812.81;;;23.73;47.85
72414;BME280;60995;52.154;4.498;2023-05-12T09:58:33;101828.25;;;24.17;45.67
72414;BME280;60995;52.154;4.498;2023-05-12T10:00:51;101815.94;;;23.91;46.95
72414;BME280;60995;52.154;4.498;2023-05-12T10:03:16;101808.53;;;23.70;47.29
72414;BME280;60995;52.154;4.498;2023-05-12T10:05:33;101815.44;;;23.88;46.81
72414;BME280;60995;52.154;4.498;2023-05-12T10:07:51;101820.47;;;23.99;46.43
72414;BME280;60995;52.154;4.498;2023-05-12T10:10:22;101820.09;;;24.51;45.66
72414;BME280;60995;52.154;4.498;2023-05-12T10:12:41;101824.59;;;24.52;45.06
72414;BME280;60995;52.154;4.498;2023-05-12T10:14:58;101827.22;;;25.35;42.96
72414;BME280;60995;52.154;4.498;2023-05-12T10:17:15;101822.66;;;25.01;44.64
72414;BME280;60995;52.154;4.498;2023-05-12T10:19:34;101825.28;;;25.96;42.46
72414;BME280;60995;52.154;4.498;2023-05-12T10:21:52;101822.91;;;25.33;43.69
72414;BME280;60995;52.154;4.498;2023-05-12T10:24:15;101823.41;;;24.68;44.33
72414;BME280;60995;52.154;4.498;2023-05-12T10:26:32;101818.31;;;24.78;44.57
72414;BME280;60995;52.154;4.498;2023-05-12T10:28:51;101834.00;;;25.19;44.13
72414;BME280;60995;52.154;4.498;2023-05-12T10:31:08;101828.59;;;26.38;41.87
72414;BME280;60995;52.154;4.498;2023-05-12T10:33:28;101825.44;;;24.94;44.36
72414;BME280;60995;52.154;4.498;2023-05-12T10:35:45;101840.28;;;24.73;45.55
72414;BME280;60995;52.154;4.498;2023-05-12T10:38:08;101828.69;;;25.98;42.76
72414;BME280;60995;52.154;4.498;2023-05-12T10:40:26;101833.94;;;26.47;41.47
72414;BME280;60995;52.154;4.498;2023-05-12T10:42:42;101834.34;;;26.50;41.11
72414;BME280;60995;52.154;4.498;2023-05-12T10:44:59;101821.47;;;27.40;39.78
72414;BME280;60995;52.154;4.498;2023-05-12T10:47:15;101810.75;;;27.62;39.05
72414;BME280;60995;52.154;4.498;2023-05-12T10:49:33;101832.09;;;26.27;41.55
72414;BME280;60995;52.154;4.498;2023-05-12T10:51:58;101831.91;;;25.28;44.22
72414;BME280;60995;52.154;4.498;2023-05-12T10:54:20;101820.09;;;23.52;47.63
72414;BME280;60995;52.154;4.498;2023-05-12T10:56:43;101818.78;;;23.26;48.25
72414;BME280;60995;52.154;4.498;2023-05-12T10:59:22;101823.69;;;23.53;48.63
72414;BME280;60995;52.154;4.498;2023-05-12T11:01:40;101828.84;;;24.48;46.19
72414;BME280;60995;52.154;4.498;2023-05-12T11:04:12;101825.56;;;23.74;47.37
72414;BME280;60995;52.154;4.498;2023-05-12T11:06:30;101821.25;;;23.65;47.40
72414;BME280;60995;52.154;4.498;2023-05-12T11:08:48;101825.69;;;23.87;47.70
72414;BME280;60995;52.154;4.498;2023-05-12T11:11:05;101817.31;;;23.52;49.94
72414;BME280;60995;52.154;4.498;2023-05-12T11:13:21;101829.94;;;25.15;44.34
72414;BME280;60995;52.154;4.498;2023-05-12T11:15:42;101821.16;;;24.98;43.72
72414;BME280;60995;52.154;4.498;2023-05-12T11:18:01;101831.09;;;24.66;45.82
72414;BME280;60995;52.154;4.498;2023-05-12T11:20:22;101822.88;;;24.99;45.51
72414;BME280;60995;52.154;4.498;2023-05-12T11:22:40;101833.03;;;24.72;46.18
72414;BME280;60995;52.154;4.498;2023-05-12T11:24:57;101822.97;;;25.66;44.05
72414;BME280;60995;52.154;4.498;2023-05-12T11:27:23;101823.56;;;26.15;43.74
72414;BME280;60995;52.154;4.498;2023-05-12T11:29:41;101824.84;;;27.10;41.22
72414;BME280;60995;52.154;4.498;2023-05-12T11:31:59;101834.25;;;26.18;43.94
72414;BME280;60995;52.154;4.498;2023-05-12T11:34:20;101828.41;;;26.40;41.18
72414;BME280;60995;52.154;4.498;2023-05-12T11:36:41;101830.63;;;25.31;44.00
72414;BME280;60995;52.154;4.498;2023-05-12T11:38:59;101829.63;;;24.83;44.92
72414;BME280;60995;52.154;4.498;2023-05-12T11:41:23;101836.13;;;25.04;44.68
72414;BME280;60995;52.154;4.498;2023-05-12T11:43:41;101841.75;;;25.51;45.10
72414;BME280;60995;52.154;4.498;2023-05-12T11:45:58;101836.16;;;24.20;48.78
72414;BME280;60995;52.154;4.498;2023-05-12T11:48:14;101843.03;;;23.68;47.51
72414;BME280;60995;52.154;4.498;2023-05-12T11:50:31;101837.59;;;24.44;45.60
72414;BME280;60995;52.154;4.498;2023-05-12T11:52:48;101845.69;;;24.94;43.85
72414;BME280;60995;52.154;4.498;2023-05-12T11:55:06;101833.31;;;24.42;45.37
72414;BME280;60995;52.154;4.498;2023-05-12T11:57:31;101838.03;;;24.97;45.05
72414;BME280;60995;52.154;4.498;2023-05-12T12:00:02;101839.19;;;25.56;43.51
72414;BME280;60995;52.154;4.498;2023-05-12T12:02:20;101836.75;;;24.57;45.04
72414;BME280;60995;52.154;4.498;2023-05-12T12:04:38;101835.09;;;24.56;46.82
72414;BME280;60995;52.154;4.498;2023-05-12T12:06:55;101840.41;;;25.26;44.23
72414;BME280;60995;52.154;4.498;2023-05-12T12:09:11;101842.41;;;25.73;44.15